sensor_id;sensor_type;location;lat;lon;timestamp;temperature;humidity
13482;DHT22;6813;60.352;15.746;2023-02-15T00:01:51;2.80;99.90
13482;DHT22;6813;60.352;15.746;2023-02-15T00:04:20;2.80;99.90
13482;DHT22;6813;60.352;15.746;2023-02-15T00:06:46;2.80;99.90
13482;DHT22;6813;60.352;15.746;2023-02-15T00:09:12;3.00;99.90
13482;DHT22;6813;60.352;15.746;2023-02-15T00:11:39;3.20;99.90
13482;DHT22;6813;60.352;15.746;2023-02-15T00:14:10;3.30;99.90
13482;DHT22;6813;60.352;15.746;2023-02-15T00:16:37;3.30;99.90
13482;DHT22;6813;60.352;15.746;2023-02-15T00:19:03;3.20;99.90
13482;DHT22;6813;60.352;15.746;2023-02-15T00:21:31;3.40;99.90
13482;DHT22;6813;60.352;15.746;2023-02-15T00:23:59;3.40;99.90
13482;DHT22;6813;60.352;15.746;2023-02-15T00:26:25;3.30;99.90
13482;DHT22;6813;60.352;15.746;2023-02-15T00:28:51;3.30;99.90
13482;DHT22;6813;60.352;15.746;2023-02-15T00:31:17;3.30;99.90
13482;DHT22;6813;60.352;15.746;2023-02-15T00:33:43;3.30;99.90
13482;DHT22;6813;60.352;15.746;2023-02-15T00:36:09;3.30;99.90
13482;DHT22;6813;60.352;15.746;2023-02-15T00:38:36;3.30;99.90
13482;DHT22;6813;60.352;15.746;2023-02-15T00:41:04;3.40;99.90
13482;DHT22;6813;60.352;15.746;2023-02-15T00:43:31;3.40;99.90
13482;DHT22;6813;60.352;15.746;2023-02-15T00:45:58;3.50;99.90
13482;DHT22;6813;60.352;15.746;2023-02-15T00:48:23;3.50;99.90
13482;DHT22;6813;60.352;15.746;2023-02-15T00:50:54;3.30;99.90
13482;DHT22;6813;60.352;15.746;2023-02-15T00:53:21;3.30;99.90
13482;DHT22;6813;60.352;15.746;2023-02-15T00:55:47;3.30;99.90
13482;DHT22;6813;60.352;15.746;2023-02-15T00:58:14;3.40;99.90
13482;DHT22;6813;60.352;15.746;2023-02-15T01:00:44;3.50;99.90
13482;DHT22;6813;60.352;15.746;2023-02-15T01:03:12;3.40;99.90
13482;DHT22;6813;60.352;15.746;2023-02-15T01:05:38;3.40;99.90
13482;DHT22;6813;60.352;15.746;2023-02-15T01:08:04;3.10;99.90
13482;DHT22;6813;60.352;15.746;2023-02-15T01:10:30;3.10;99.90
13482;DHT22;6813;60.352;15.746;2023-02-15T01:12:56;3.10;99.90
13482;DHT22;6813;60.352;15.746;2023-02-15T01:15:22;3.20;99.90
13482;DHT22;6813;60.352;15.746;2023-02-15T01:17:48;3.10;99.90
13482;DHT22;6813;60.352;15.746;2023-02-15T01:20:23;3.30;99.90
13482;DHT22;6813;60.352;15.746;2023-02-15T01:22:49;3.40;99.90
13482;DHT22;6813;60.352;15.746;2023-02-15T01:25:19;3.50;99.90
13482;DHT22;6813;60.352;15.746;2023-02-15T01:27:45;3.60;99.90
13482;DHT22;6813;60.352;15.746;2023-02-15T01:30:12;3.50;99.90
13482;DHT22;6813;60.352;15.746;2023-02-15T01:32:38;3.50;99.90
13482;DHT22;6813;60.352;15.746;2023-02-15T01:35:04;3.50;99.90
13482;DHT22;6813;60.352;15.746;2023-02-15T01:37:33;3.60;99.90
13482;DHT22;6813;60.352;15.746;2023-02-15T01:40:00;3.70;99.90
13482;DHT22;6813;60.352;15.746;2023-02-15T01:42:28;3.70;99.90
13482;DHT22;6813;60.352;15.746;2023-02-15T01:44:56;3.70;99.90
13482;DHT22;6813;60.352;15.746;2023-02-15T01:47:32;3.70;99.90
13482;DHT22;6813;60.352;15.746;2023-02-15T01:50:10;3.70;99.90
13482;DHT22;6813;60.352;15.746;2023-02-15T01:52:51;3.80;99.90
13482;DHT22;6813;60.352;15.746;2023-02-15T01:55:18;3.80;99.90
13482;DHT22;6813;60.352;15.746;2023-02-15T01:57:45;3.80;99.90
13482;DHT22;6813;60.352;15.746;2023-02-15T02:00:13;3.80;99.90
13482;DHT22;6813;60.352;15.746;2023-02-15T02:02:41;3.90;99.90
13482;DHT22;6813;60.352;15.746;2023-02-15T02:05:08;3.80;99.90
13482;DHT22;6813;60.352;15.746;2023-02-15T02:07:44;3.90;99.90
13482;DHT22;6813;60.352;15.746;2023-02-15T02:10:13;3.80;99.90
13482;DHT22;6813;60.352;15.746;2023-02-15T02:12:42;3.80;99.90
13482;DHT22;6813;60.352;15.746;2023-02-15T02:15:09;3.90;99.90
13482;DHT22;6813;60.352;15.746;2023-02-15T02:33:53;4.10;99.90
13482;DHT22;6813;60.352;15.746;2023-02-15T02:39:23;4.10;99.90
13482;DHT22;6813;60.352;15.746;2023-02-15T02:41:58;4.20;99.90
13482;DHT22;6813;60.352;15.746;2023-02-15T02:44:38;4.10;99.90
13482;DHT22;6813;60.352;15.746;2023-02-15T02:47:30;4.20;99.90
13482;DHT22;6813;60.352;15.746;2023-02-15T02:50:05;4.20;99.90
13482;DHT22;6813;60.352;15.746;2023-02-15T02:52:52;4.30;99.90
13482;DHT22;6813;60.352;15.746;2023-02-15T03:00:19;4.30;99.90
13482;DHT22;6813;60.352;15.746;2023-02-15T03:02:48;4.40;99.90
13482;DHT22;6813;60.352;15.746;2023-02-15T03:05:19;4.40;99.90
13482;DHT22;6813;60.352;15.746;2023-02-15T03:07:49;4.40;99.90
13482;DHT22;6813;60.352;15.746;2023-02-15T03:10:18;4.40;99.90
13482;DHT22;6813;60.352;15.746;2023-02-15T03:12:46;4.40;99.90
13482;DHT22;6813;60.352;15.746;2023-02-15T03:15:20;4.30;99.90
13482;DHT22;6813;60.352;15.746;2023-02-15T03:17:54;4.30;99.90
13482;DHT22;6813;60.352;15.746;2023-02-15T03:20:32;4.30;99.90
13482;DHT22;6813;60.352;15.746;2023-02-15T03:23:03;4.40;99.90
13482;DHT22;6813;60.352;15.746;2023-02-15T03:25:35;4.50;99.90
13482;DHT22;6813;60.352;15.746;2023-02-15T03:28:08;4.40;99.90
13482;DHT22;6813;60.352;15.746;2023-02-15T03:30:36;4.40;99.90
13482;DHT22;6813;60.352;15.746;2023-02-15T03:33:05;4.50;99.90
13482;DHT22;6813;60.352;15.746;2023-02-15T03:38:09;4.60;99.90
13482;DHT22;6813;60.352;15.746;2023-02-15T03:40:42;4.60;99.90
13482;DHT22;6813;60.352;15.746;2023-02-15T03:46:52;4.60;99.90
13482;DHT22;6813;60.352;15.746;2023-02-15T03:49:51;4.50;99.90
13482;DHT22;6813;60.352;15.746;2023-02-15T03:52:15;4.60;99.90
13482;DHT22;6813;60.352;15.746;2023-02-15T03:54:43;4.60;99.90
13482;DHT22;6813;60.352;15.746;2023-02-15T03:57:28;4.60;99.90
13482;DHT22;6813;60.352;15.746;2023-02-15T04:00:14;4.70;99.90
13482;DHT22;6813;60.352;15.746;2023-02-15T04:05:27;4.60;99.90
13482;DHT22;6813;60.352;15.746;2023-02-15T04:07:52;4.60;99.90
13482;DHT22;6813;60.352;15.746;2023-02-15T04:10:18;4.60;99.90
13482;DHT22;6813;60.352;15.746;2023-02-15T04:13:02;4.50;99.90
13482;DHT22;6813;60.352;15.746;2023-02-15T04:15:28;4.50;99.90
13482;DHT22;6813;60.352;15.746;2023-02-15T04:18:12;4.50;99.90
13482;DHT22;6813;60.352;15.746;2023-02-15T04:20:38;4.60;99.90
13482;DHT22;6813;60.352;15.746;2023-02-15T04:23:22;4.60;99.90
13482;DHT22;6813;60.352;15.746;2023-02-15T04:26:06;4.50;99.90
13482;DHT22;6813;60.352;15.746;2023-02-15T04:28:32;4.60;99.90
13482;DHT22;6813;60.352;15.746;2023-02-15T04:30:58;4.60;99.90
13482;DHT22;6813;60.352;15.746;2023-02-15T04:33:23;4.70;99.90
13482;DHT22;6813;60.352;15.746;2023-02-15T04:35:49;4.80;99.90
13482;DHT22;6813;60.352;15.746;2023-02-15T04:38:15;4.80;99.90
13482;DHT22;6813;60.352;15.746;2023-02-15T04:40:40;4.80;99.90
13482;DHT22;6813;60.352;15.746;2023-02-15T04:43:06;4.80;99.90
13482;DHT22;6813;60.352;15.746;2023-02-15T04:45:32;4.70;99.90
13482;DHT22;6813;60.352;15.746;2023-02-15T04:47:57;4.70;99.90
13482;DHT22;6813;60.352;15.746;2023-02-15T04:50:23;4.70;99.90
13482;DHT22;6813;60.352;15.746;2023-02-15T04:52:49;4.70;99.90
13482;DHT22;6813;60.352;15.746;2023-02-15T04:55:14;4.70;99.90
13482;DHT22;6813;60.352;15.746;2023-02-15T04:57:40;4.70;99.90
13482;DHT22;6813;60.352;15.746;2023-02-15T05:00:06;4.60;99.90
13482;DHT22;6813;60.352;15.746;2023-02-15T05:02:34;4.60;99.90
13482;DHT22;6813;60.352;15.746;2023-02-15T05:04:59;4.60;99.90
13482;DHT22;6813;60.352;15.746;2023-02-15T05:07:25;4.60;99.90
13482;DHT22;6813;60.352;15.746;2023-02-15T05:09:51;4.60;99.90
13482;DHT22;6813;60.352;15.746;2023-02-15T05:12:16;4.70;99.90
13482;DHT22;6813;60.352;15.746;2023-02-15T05:14:42;4.70;99.90
13482;DHT22;6813;60.352;15.746;2023-02-15T05:17:08;4.70;99.90
13482;DHT22;6813;60.352;15.746;2023-02-15T05:19:33;4.70;99.90
13482;DHT22;6813;60.352;15.746;2023-02-15T05:21:59;4.70;99.90
13482;DHT22;6813;60.352;15.746;2023-02-15T05:24:24;4.60;99.90
13482;DHT22;6813;60.352;15.746;2023-02-15T05:27:12;4.60;99.90
13482;DHT22;6813;60.352;15.746;2023-02-15T05:29:57;4.70;99.90
13482;DHT22;6813;60.352;15.746;2023-02-15T05:32:22;4.70;99.90
13482;DHT22;6813;60.352;15.746;2023-02-15T05:34:48;4.60;99.90
13482;DHT22;6813;60.352;15.746;2023-02-15T05:37:14;4.50;99.90
13482;DHT22;6813;60.352;15.746;2023-02-15T05:39:39;4.40;99.90
13482;DHT22;6813;60.352;15.746;2023-02-15T05:42:05;4.50;99.90
13482;DHT22;6813;60.352;15.746;2023-02-15T05:44:31;4.40;99.90
13482;DHT22;6813;60.352;15.746;2023-02-15T05:46:57;4.40;99.90
13482;DHT22;6813;60.352;15.746;2023-02-15T05:49:23;4.40;99.90
13482;DHT22;6813;60.352;15.746;2023-02-15T05:51:48;4.50;99.90
13482;DHT22;6813;60.352;15.746;2023-02-15T05:54:14;4.40;99.90
13482;DHT22;6813;60.352;15.746;2023-02-15T05:56:40;4.40;99.90
13482;DHT22;6813;60.352;15.746;2023-02-15T05:59:05;4.30;99.90
13482;DHT22;6813;60.352;15.746;2023-02-15T06:01:31;4.20;99.90
13482;DHT22;6813;60.352;15.746;2023-02-15T06:03:57;4.20;99.90
13482;DHT22;6813;60.352;15.746;2023-02-15T06:06:22;4.30;99.90
13482;DHT22;6813;60.352;15.746;2023-02-15T06:08:48;4.40;99.90
13482;DHT22;6813;60.352;15.746;2023-02-15T06:11:14;4.50;99.90
13482;DHT22;6813;60.352;15.746;2023-02-15T06:13:40;4.50;99.90
13482;DHT22;6813;60.352;15.746;2023-02-15T06:16:06;4.50;99.90
13482;DHT22;6813;60.352;15.746;2023-02-15T06:18:32;4.50;99.90
13482;DHT22;6813;60.352;15.746;2023-02-15T06:20:57;4.50;99.90
13482;DHT22;6813;60.352;15.746;2023-02-15T06:23:23;4.50;99.90
13482;DHT22;6813;60.352;15.746;2023-02-15T06:25:49;4.40;99.90
13482;DHT22;6813;60.352;15.746;2023-02-15T06:28:14;4.30;99.90
13482;DHT22;6813;60.352;15.746;2023-02-15T06:30:40;4.30;99.90
13482;DHT22;6813;60.352;15.746;2023-02-15T06:33:06;4.10;99.90
13482;DHT22;6813;60.352;15.746;2023-02-15T06:35:31;4.20;99.90
13482;DHT22;6813;60.352;15.746;2023-02-15T06:37:57;4.20;99.90
13482;DHT22;6813;60.352;15.746;2023-02-15T06:40:23;4.20;99.90
13482;DHT22;6813;60.352;15.746;2023-02-15T06:42:48;4.20;99.90
13482;DHT22;6813;60.352;15.746;2023-02-15T06:45:14;4.20;99.90
13482;DHT22;6813;60.352;15.746;2023-02-15T06:47:40;4.30;99.90
13482;DHT22;6813;60.352;15.746;2023-02-15T06:50:07;4.30;99.90
13482;DHT22;6813;60.352;15.746;2023-02-15T06:52:33;4.40;99.90
13482;DHT22;6813;60.352;15.746;2023-02-15T06:54:59;4.30;99.90
13482;DHT22;6813;60.352;15.746;2023-02-15T06:57:25;4.20;99.90
13482;DHT22;6813;60.352;15.746;2023-02-15T06:59:50;4.30;99.90
13482;DHT22;6813;60.352;15.746;2023-02-15T07:02:17;4.40;99.90
13482;DHT22;6813;60.352;15.746;2023-02-15T07:04:43;4.40;99.90
13482;DHT22;6813;60.352;15.746;2023-02-15T07:07:10;4.40;99.90
13482;DHT22;6813;60.352;15.746;2023-02-15T07:09:35;4.50;99.90
13482;DHT22;6813;60.352;15.746;2023-02-15T07:12:02;4.50;99.90
13482;DHT22;6813;60.352;15.746;2023-02-15T07:14:46;4.50;99.90
13482;DHT22;6813;60.352;15.746;2023-02-15T07:17:12;4.60;99.90
13482;DHT22;6813;60.352;15.746;2023-02-15T07:19:37;4.70;99.90
13482;DHT22;6813;60.352;15.746;2023-02-15T07:22:03;4.60;99.90
13482;DHT22;6813;60.352;15.746;2023-02-15T07:24:30;4.40;99.90
13482;DHT22;6813;60.352;15.746;2023-02-15T07:26:56;4.50;99.90
13482;DHT22;6813;60.352;15.746;2023-02-15T07:29:23;4.40;99.90
13482;DHT22;6813;60.352;15.746;2023-02-15T07:31:48;4.50;99.90
13482;DHT22;6813;60.352;15.746;2023-02-15T07:34:14;4.50;99.90
13482;DHT22;6813;60.352;15.746;2023-02-15T07:36:41;4.50;99.90
13482;DHT22;6813;60.352;15.746;2023-02-15T07:39:09;4.50;99.90
13482;DHT22;6813;60.352;15.746;2023-02-15T07:41:35;4.50;99.90
13482;DHT22;6813;60.352;15.746;2023-02-15T07:44:01;4.60;99.90
13482;DHT22;6813;60.352;15.746;2023-02-15T07:46:26;4.60;99.90
13482;DHT22;6813;60.352;15.746;2023-02-15T07:48:53;4.70;99.90
13482;DHT22;6813;60.352;15.746;2023-02-15T07:51:19;4.80;99.90
13482;DHT22;6813;60.352;15.746;2023-02-15T07:53:45;4.70;99.90
13482;DHT22;6813;60.352;15.746;2023-02-15T07:56:13;4.70;99.90
13482;DHT22;6813;60.352;15.746;2023-02-15T07:58:39;4.70;99.90
13482;DHT22;6813;60.352;15.746;2023-02-15T08:01:19;4.70;99.90
13482;DHT22;6813;60.352;15.746;2023-02-15T08:03:45;4.70;99.90
13482;DHT22;6813;60.352;15.746;2023-02-15T08:06:11;4.50;99.90
13482;DHT22;6813;60.352;15.746;2023-02-15T08:08:39;4.50;99.90
13482;DHT22;6813;60.352;15.746;2023-02-15T08:11:06;4.50;99.90
13482;DHT22;6813;60.352;15.746;2023-02-15T08:13:56;4.60;99.90
13482;DHT22;6813;60.352;15.746;2023-02-15T08:16:45;4.50;99.90
13482;DHT22;6813;60.352;15.746;2023-02-15T08:19:19;4.50;99.90
13482;DHT22;6813;60.352;15.746;2023-02-15T08:21:50;4.60;99.90
13482;DHT22;6813;60.352;15.746;2023-02-15T08:24:19;4.70;99.90
13482;DHT22;6813;60.352;15.746;2023-02-15T08:26:45;4.70;99.90
13482;DHT22;6813;60.352;15.746;2023-02-15T08:29:13;4.70;99.90
13482;DHT22;6813;60.352;15.746;2023-02-15T08:31:39;4.60;99.90
13482;DHT22;6813;60.352;15.746;2023-02-15T08:34:07;4.60;99.90
13482;DHT22;6813;60.352;15.746;2023-02-15T08:36:33;4.70;99.90
13482;DHT22;6813;60.352;15.746;2023-02-15T08:39:01;4.70;99.90
13482;DHT22;6813;60.352;15.746;2023-02-15T08:41:35;4.70;99.90
13482;DHT22;6813;60.352;15.746;2023-02-15T08:44:04;4.60;99.90
13482;DHT22;6813;60.352;15.746;2023-02-15T08:46:32;4.60;99.90
13482;DHT22;6813;60.352;15.746;2023-02-15T08:48:58;4.70;99.90
13482;DHT22;6813;60.352;15.746;2023-02-15T08:51:29;4.70;99.90
13482;DHT22;6813;60.352;15.746;2023-02-15T08:53:58;4.70;99.90
13482;DHT22;6813;60.352;15.746;2023-02-15T08:56:29;4.60;99.90
13482;DHT22;6813;60.352;15.746;2023-02-15T08:58:57;4.50;99.90
13482;DHT22;6813;60.352;15.746;2023-02-15T09:01:25;4.60;99.90
13482;DHT22;6813;60.352;15.746;2023-02-15T09:03:55;4.70;99.90
13482;DHT22;6813;60.352;15.746;2023-02-15T09:06:21;4.70;99.90
13482;DHT22;6813;60.352;15.746;2023-02-15T09:08:48;4.90;99.90
13482;DHT22;6813;60.352;15.746;2023-02-15T09:11:26;4.90;99.90
13482;DHT22;6813;60.352;15.746;2023-02-15T09:14:00;5.00;99.90
13482;DHT22;6813;60.352;15.746;2023-02-15T09:16:28;5.10;99.90
13482;DHT22;6813;60.352;15.746;2023-02-15T09:18:55;5.20;99.90
13482;DHT22;6813;60.352;15.746;2023-02-15T09:21:24;5.10;99.90
13482;DHT22;6813;60.352;15.746;2023-02-15T09:23:54;5.10;99.90
13482;DHT22;6813;60.352;15.746;2023-02-15T09:26:22;5.30;99.90
13482;DHT22;6813;60.352;15.746;2023-02-15T09:28:50;5.20;99.90
13482;DHT22;6813;60.352;15.746;2023-02-15T09:31:22;5.00;99.90
13482;DHT22;6813;60.352;15.746;2023-02-15T09:33:48;5.00;99.90
13482;DHT22;6813;60.352;15.746;2023-02-15T09:36:21;5.20;99.90
13482;DHT22;6813;60.352;15.746;2023-02-15T09:38:55;5.30;99.90
13482;DHT22;6813;60.352;15.746;2023-02-15T09:44:41;5.20;99.90
13482;DHT22;6813;60.352;15.746;2023-02-15T10:01:12;5.30;99.90
13482;DHT22;6813;60.352;15.746;2023-02-15T10:07:05;5.40;99.90
13482;DHT22;6813;60.352;15.746;2023-02-15T10:09:52;5.40;99.90
13482;DHT22;6813;60.352;15.746;2023-02-15T10:17:59;5.50;99.90
13482;DHT22;6813;60.352;15.746;2023-02-15T10:20:46;5.30;99.90
13482;DHT22;6813;60.352;15.746;2023-02-15T10:34:48;5.40;99.90
13482;DHT22;6813;60.352;15.746;2023-02-15T10:45:40;5.40;99.90
13482;DHT22;6813;60.352;15.746;2023-02-15T10:51:13;5.50;99.90
13482;DHT22;6813;60.352;15.746;2023-02-15T10:54:12;5.40;99.90
13482;DHT22;6813;60.352;15.746;2023-02-15T10:57:05;5.40;99.90
13482;DHT22;6813;60.352;15.746;2023-02-15T11:02:45;5.30;99.90
13482;DHT22;6813;60.352;15.746;2023-02-15T11:07:59;5.20;99.90
13482;DHT22;6813;60.352;15.746;2023-02-15T11:10:42;5.40;99.90
13482;DHT22;6813;60.352;15.746;2023-02-15T11:13:13;5.50;99.90
13482;DHT22;6813;60.352;15.746;2023-02-15T11:15:55;5.30;99.90
13482;DHT22;6813;60.352;15.746;2023-02-15T11:18:28;5.30;99.90
13482;DHT22;6813;60.352;15.746;2023-02-15T11:23:43;5.50;99.90
13482;DHT22;6813;60.352;15.746;2023-02-15T11:26:34;5.60;99.90
13482;DHT22;6813;60.352;15.746;2023-02-15T11:32:25;5.60;99.90
13482;DHT22;6813;60.352;15.746;2023-02-15T11:37:50;5.60;99.90
13482;DHT22;6813;60.352;15.746;2023-02-15T11:40:56;5.40;99.90
13482;DHT22;6813;60.352;15.746;2023-02-15T11:43:36;5.70;99.90
13482;DHT22;6813;60.352;15.746;2023-02-15T11:46:03;5.80;99.90
13482;DHT22;6813;60.352;15.746;2023-02-15T11:48:31;5.60;99.90
13482;DHT22;6813;60.352;15.746;2023-02-15T11:50:58;5.50;99.90
13482;DHT22;6813;60.352;15.746;2023-02-15T11:53:23;5.50;99.90
13482;DHT22;6813;60.352;15.746;2023-02-15T11:55:53;5.50;99.90
13482;DHT22;6813;60.352;15.746;2023-02-15T12:01:21;5.60;99.90
13482;DHT22;6813;60.352;15.746;2023-02-15T12:06:51;5.60;99.90
13482;DHT22;6813;60.352;15.746;2023-02-15T12:09:36;5.50;99.90
13482;DHT22;6813;60.352;15.746;2023-02-15T12:14:50;5.50;99.90
13482;DHT22;6813;60.352;15.746;2023-02-15T12:17:16;5.60;99.90
13482;DHT22;6813;60.352;15.746;2023-02-15T12:19:43;5.30;99.90
13482;DHT22;6813;60.352;15.746;2023-02-15T12:22:27;5.40;99.90
13482;DHT22;6813;60.352;15.746;2023-02-15T12:24:59;5.40;99.90
13482;DHT22;6813;60.352;15.746;2023-02-15T12:27:31;5.30;99.90
13482;DHT22;6813;60.352;15.746;2023-02-15T12:30:06;5.20;99.90
13482;DHT22;6813;60.352;15.746;2023-02-15T12:32:50;5.40;99.90
13482;DHT22;6813;60.352;15.746;2023-02-15T12:35:29;5.40;99.90
13482;DHT22;6813;60.352;15.746;2023-02-15T12:40:37;5.50;99.90
13482;DHT22;6813;60.352;15.746;2023-02-15T12:43:04;5.50;99.90
13482;DHT22;6813;60.352;15.746;2023-02-15T12:45:35;5.40;99.90
13482;DHT22;6813;60.352;15.746;2023-02-15T12:48:21;5.50;99.90
13482;DHT22;6813;60.352;15.746;2023-02-15T12:50:51;5.50;99.90
13482;DHT22;6813;60.352;15.746;2023-02-15T12:53:21;5.60;99.90
13482;DHT22;6813;60.352;15.746;2023-02-15T12:55:56;5.60;99.90
13482;DHT22;6813;60.352;15.746;2023-02-15T12:58:24;5.60;99.90
13482;DHT22;6813;60.352;15.746;2023-02-15T13:03:35;5.70;99.90
13482;DHT22;6813;60.352;15.746;2023-02-15T13:06:03;5.70;99.90
13482;DHT22;6813;60.352;15.746;2023-02-15T13:08:39;5.70;99.90
13482;DHT22;6813;60.352;15.746;2023-02-15T13:11:11;5.80;99.90
13482;DHT22;6813;60.352;15.746;2023-02-15T13:14:01;5.80;99.90
13482;DHT22;6813;60.352;15.746;2023-02-15T13:16:34;6.00;99.90
13482;DHT22;6813;60.352;15.746;2023-02-15T13:21:39;5.70;99.90
13482;DHT22;6813;60.352;15.746;2023-02-15T13:24:15;5.80;99.90
13482;DHT22;6813;60.352;15.746;2023-02-15T13:26:44;5.70;99.90
13482;DHT22;6813;60.352;15.746;2023-02-15T13:29:31;5.90;99.90
13482;DHT22;6813;60.352;15.746;2023-02-15T13:32:06;5.90;99.90
13482;DHT22;6813;60.352;15.746;2023-02-15T13:34:38;5.90;99.90
13482;DHT22;6813;60.352;15.746;2023-02-15T13:37:18;5.90;99.90
13482;DHT22;6813;60.352;15.746;2023-02-15T13:40:01;5.90;99.90
13482;DHT22;6813;60.352;15.746;2023-02-15T13:42:41;6.00;99.90
13482;DHT22;6813;60.352;15.746;2023-02-15T13:48:08;6.00;99.90
13482;DHT22;6813;60.352;15.746;2023-02-15T13:55:51;6.00;99.90
13482;DHT22;6813;60.352;15.746;2023-02-15T14:12:42;5.60;99.90
13482;DHT22;6813;60.352;15.746;2023-02-15T14:25:47;5.90;99.90
13482;DHT22;6813;60.352;15.746;2023-02-15T14:31:37;5.70;99.90
13482;DHT22;6813;60.352;15.746;2023-02-15T14:34:05;5.70;99.90
13482;DHT22;6813;60.352;15.746;2023-02-15T14:36:32;5.40;99.90
13482;DHT22;6813;60.352;15.746;2023-02-15T14:39:37;5.40;99.90
13482;DHT22;6813;60.352;15.746;2023-02-15T14:42:34;5.40;99.90
13482;DHT22;6813;60.352;15.746;2023-02-15T14:47:35;5.60;99.90
13482;DHT22;6813;60.352;15.746;2023-02-15T15:01:30;5.40;99.90
13482;DHT22;6813;60.352;15.746;2023-02-15T15:06:38;5.40;99.90
13482;DHT22;6813;60.352;15.746;2023-02-15T15:09:30;5.50;99.90
13482;DHT22;6813;60.352;15.746;2023-02-15T15:14:46;5.40;99.90
13482;DHT22;6813;60.352;15.746;2023-02-15T15:22:40;6.10;99.90
13482;DHT22;6813;60.352;15.746;2023-02-15T15:27:57;6.10;99.90
13482;DHT22;6813;60.352;15.746;2023-02-15T15:32:59;6.00;99.90
13482;DHT22;6813;60.352;15.746;2023-02-15T15:49:10;5.40;99.90
13482;DHT22;6813;60.352;15.746;2023-02-15T15:51:39;5.60;99.90
13482;DHT22;6813;60.352;15.746;2023-02-15T15:54:05;5.60;99.90
13482;DHT22;6813;60.352;15.746;2023-02-15T15:56:35;5.70;99.90
13482;DHT22;6813;60.352;15.746;2023-02-15T15:59:05;5.70;99.90
13482;DHT22;6813;60.352;15.746;2023-02-15T16:01:38;5.60;99.90
13482;DHT22;6813;60.352;15.746;2023-02-15T16:04:10;5.70;99.90
13482;DHT22;6813;60.352;15.746;2023-02-15T16:06:37;5.70;99.90
13482;DHT22;6813;60.352;15.746;2023-02-15T16:09:25;5.70;99.90
13482;DHT22;6813;60.352;15.746;2023-02-15T16:11:53;5.60;99.90
13482;DHT22;6813;60.352;15.746;2023-02-15T16:14:36;5.50;99.90
13482;DHT22;6813;60.352;15.746;2023-02-15T16:17:05;5.50;99.90
13482;DHT22;6813;60.352;15.746;2023-02-15T16:19:39;5.50;99.90
13482;DHT22;6813;60.352;15.746;2023-02-15T16:22:11;5.60;99.90
13482;DHT22;6813;60.352;15.746;2023-02-15T16:27:37;5.60;99.90
13482;DHT22;6813;60.352;15.746;2023-02-15T16:30:31;5.50;99.90
13482;DHT22;6813;60.352;15.746;2023-02-15T16:33:09;5.40;99.90
13482;DHT22;6813;60.352;15.746;2023-02-15T16:36:00;5.40;99.90
13482;DHT22;6813;60.352;15.746;2023-02-15T16:41:29;5.60;99.90
13482;DHT22;6813;60.352;15.746;2023-02-15T16:44:03;5.50;99.90
13482;DHT22;6813;60.352;15.746;2023-02-15T16:49:00;5.50;99.90
13482;DHT22;6813;60.352;15.746;2023-02-15T16:51:29;5.50;99.90
13482;DHT22;6813;60.352;15.746;2023-02-15T16:53:59;5.40;99.90
13482;DHT22;6813;60.352;15.746;2023-02-15T16:56:29;5.50;99.90
13482;DHT22;6813;60.352;15.746;2023-02-15T16:58:59;5.60;99.90
13482;DHT22;6813;60.352;15.746;2023-02-15T17:01:31;5.70;99.90
13482;DHT22;6813;60.352;15.746;2023-02-15T17:04:13;5.70;99.90
13482;DHT22;6813;60.352;15.746;2023-02-15T17:06:39;5.80;99.90
13482;DHT22;6813;60.352;15.746;2023-02-15T17:09:16;5.90;99.90
13482;DHT22;6813;60.352;15.746;2023-02-15T17:11:44;5.90;99.90
13482;DHT22;6813;60.352;15.746;2023-02-15T17:14:13;5.80;99.90
13482;DHT22;6813;60.352;15.746;2023-02-15T17:16:44;5.80;99.90
13482;DHT22;6813;60.352;15.746;2023-02-15T17:19:20;5.80;99.90
13482;DHT22;6813;60.352;15.746;2023-02-15T17:21:54;5.70;99.90
13482;DHT22;6813;60.352;15.746;2023-02-15T17:26:53;6.00;99.90
13482;DHT22;6813;60.352;15.746;2023-02-15T17:31:55;6.10;99.90
13482;DHT22;6813;60.352;15.746;2023-02-15T17:37:12;6.00;99.90
13482;DHT22;6813;60.352;15.746;2023-02-15T17:39:37;5.90;99.90
13482;DHT22;6813;60.352;15.746;2023-02-15T17:42:03;5.90;99.90
13482;DHT22;6813;60.352;15.746;2023-02-15T17:44:29;5.80;99.90
13482;DHT22;6813;60.352;15.746;2023-02-15T17:46:55;5.90;99.90
13482;DHT22;6813;60.352;15.746;2023-02-15T17:49:25;6.00;99.90
13482;DHT22;6813;60.352;15.746;2023-02-15T17:52:00;6.00;99.90
13482;DHT22;6813;60.352;15.746;2023-02-15T17:54:27;5.90;99.90
13482;DHT22;6813;60.352;15.746;2023-02-15T17:57:13;5.90;99.90
13482;DHT22;6813;60.352;15.746;2023-02-15T17:59:40;5.70;99.90
13482;DHT22;6813;60.352;15.746;2023-02-15T18:02:24;5.70;99.90
13482;DHT22;6813;60.352;15.746;2023-02-15T18:05:15;5.70;99.90
13482;DHT22;6813;60.352;15.746;2023-02-15T18:07:59;5.60;99.90
13482;DHT22;6813;60.352;15.746;2023-02-15T18:10:44;5.50;99.90
13482;DHT22;6813;60.352;15.746;2023-02-15T18:13:28;5.50;99.90
13482;DHT22;6813;60.352;15.746;2023-02-15T18:15:54;5.50;99.90
13482;DHT22;6813;60.352;15.746;2023-02-15T18:18:22;5.60;99.90
13482;DHT22;6813;60.352;15.746;2023-02-15T18:20:48;5.40;99.90
13482;DHT22;6813;60.352;15.746;2023-02-15T18:23:15;5.40;99.90
13482;DHT22;6813;60.352;15.746;2023-02-15T18:25:41;5.40;99.90
13482;DHT22;6813;60.352;15.746;2023-02-15T18:28:08;5.30;99.90
13482;DHT22;6813;60.352;15.746;2023-02-15T18:30:39;5.20;99.90
13482;DHT22;6813;60.352;15.746;2023-02-15T18:33:28;5.30;99.90
13482;DHT22;6813;60.352;15.746;2023-02-15T18:35:57;5.40;99.90
13482;DHT22;6813;60.352;15.746;2023-02-15T18:38:23;5.60;99.90
13482;DHT22;6813;60.352;15.746;2023-02-15T18:40:48;5.60;99.90
13482;DHT22;6813;60.352;15.746;2023-02-15T18:43:15;5.70;99.90
13482;DHT22;6813;60.352;15.746;2023-02-15T18:45:41;5.60;99.90
13482;DHT22;6813;60.352;15.746;2023-02-15T18:48:06;5.70;99.90
13482;DHT22;6813;60.352;15.746;2023-02-15T18:50:36;5.70;99.90
13482;DHT22;6813;60.352;15.746;2023-02-15T18:53:04;5.80;99.90
13482;DHT22;6813;60.352;15.746;2023-02-15T18:55:31;5.80;99.90
13482;DHT22;6813;60.352;15.746;2023-02-15T18:57:58;5.80;99.90
13482;DHT22;6813;60.352;15.746;2023-02-15T19:00:32;5.90;99.90
13482;DHT22;6813;60.352;15.746;2023-02-15T19:02:59;5.90;99.90
13482;DHT22;6813;60.352;15.746;2023-02-15T19:05:27;5.90;99.90
13482;DHT22;6813;60.352;15.746;2023-02-15T19:07:54;5.90;99.90
13482;DHT22;6813;60.352;15.746;2023-02-15T19:10:22;5.80;99.90
13482;DHT22;6813;60.352;15.746;2023-02-15T19:12:49;5.80;99.90
13482;DHT22;6813;60.352;15.746;2023-02-15T19:15:24;5.70;99.90
13482;DHT22;6813;60.352;15.746;2023-02-15T19:17:51;5.70;99.90
13482;DHT22;6813;60.352;15.746;2023-02-15T19:20:19;5.70;99.90
13482;DHT22;6813;60.352;15.746;2023-02-15T19:22:49;5.60;99.90
13482;DHT22;6813;60.352;15.746;2023-02-15T19:25:27;5.60;99.90
13482;DHT22;6813;60.352;15.746;2023-02-15T19:27:54;5.50;99.90
13482;DHT22;6813;60.352;15.746;2023-02-15T19:30:21;5.50;99.90
13482;DHT22;6813;60.352;15.746;2023-02-15T19:32:48;5.50;99.90
13482;DHT22;6813;60.352;15.746;2023-02-15T19:35:16;5.50;99.90
13482;DHT22;6813;60.352;15.746;2023-02-15T19:37:46;5.60;99.90